Time;durP1;ratioP1;P1;durP2;ratioP2;P2;SDS_P1;SDS_P2;PMS_P1;PMS_P2;Temp;Humidity;BMP_temperature;BMP_pressure;BME280_temperature;BME280_humidity;BME280_pressure;Samples;Min_cycle;Max_cycle;Signal;HPM_P1;HPM_P2
2022/12/03 00:01:44;;;;;;;18.48;15.80;;;10.40;1.00;;;;;;5031274;28;20018;-67
2022/12/03 00:04:10;;;;;;;17.75;15.00;;;10.50;1.00;;;;;;5018597;28;20025;-67
2022/12/03 00:06:35;;;;;;;19.25;15.65;;;10.50;1.00;;;;;;5030715;28;20390;-67
2022/12/03 00:09:02;;;;;;;19.13;15.60;;;10.50;1.00;;;;;;5026658;28;20022;-67
2022/12/03 00:11:28;;;;;;;19.52;16.20;;;10.60;1.00;;;;;;5032769;28;20018;-67
2022/12/03 00:13:53;;;;;;;19.88;15.80;;;10.50;1.00;;;;;;5032376;28;20018;-67
2022/12/03 00:16:19;;;;;;;18.27;14.90;;;10.50;1.00;;;;;;5030992;28;20033;-67
2022/12/03 00:18:44;;;;;;;22.15;16.63;;;10.50;1.00;;;;;;5032251;28;20072;-67
2022/12/03 00:21:10;;;;;;;20.38;16.10;;;10.50;1.00;;;;;;5029640;28;20033;-67
2022/12/03 00:23:35;;;;;;;20.35;16.48;;;10.50;1.00;;;;;;5032303;28;20053;-67
2022/12/03 00:26:01;;;;;;;20.52;16.10;;;10.50;1.00;;;;;;5018263;28;20080;-67
2022/12/03 00:28:26;;;;;;;18.92;14.85;;;10.50;1.00;;;;;;5032005;28;20060;-67
2022/12/03 00:30:52;;;;;;;17.70;15.65;;;10.50;1.00;;;;;;5030832;28;20026;-67
2022/12/03 00:33:19;;;;;;;21.13;15.32;;;10.50;1.00;;;;;;5020851;28;20427;-67
2022/12/03 00:35:45;;;;;;;19.90;15.63;;;10.50;1.00;;;;;;5032102;28;20051;-67
2022/12/03 00:38:11;;;;;;;18.02;15.73;;;10.60;1.00;;;;;;5032010;28;20021;-67
2022/12/03 00:40:36;;;;;;;17.50;14.63;;;10.60;1.00;;;;;;5032098;28;20025;-67
2022/12/03 00:43:02;;;;;;;20.20;15.88;;;10.60;1.00;;;;;;5031624;28;20048;-67
2022/12/03 00:45:28;;;;;;;17.05;15.23;;;10.60;1.00;;;;;;5032078;28;20070;-67
2022/12/03 00:47:53;;;;;;;20.98;15.93;;;10.60;1.00;;;;;;5031934;28;20051;-67
2022/12/03 00:50:19;;;;;;;18.58;15.88;;;10.60;1.00;;;;;;5031618;28;20102;-66
2022/12/03 00:52:44;;;;;;;20.65;16.15;;;10.60;1.00;;;;;;5018213;28;20128;-67
2022/12/03 00:55:10;;;;;;;21.33;16.10;;;10.60;1.00;;;;;;5023993;28;20029;-67
2022/12/03 00:57:36;;;;;;;20.90;16.65;;;10.50;1.00;;;;;;5013990;28;20023;-67
2022/12/03 01:00:04;;;;;;;18.50;14.82;;;10.60;1.00;;;;;;4997340;28;20114;-67
2022/12/03 01:02:29;;;;;;;19.15;16.25;;;10.40;1.00;;;;;;5031786;28;20072;-67
2022/12/03 01:04:55;;;;;;;20.63;15.52;;;10.40;1.00;;;;;;5031741;28;20025;-67
2022/12/03 01:07:20;;;;;;;20.73;17.38;;;10.30;1.00;;;;;;5027667;28;20103;-67
2022/12/03 01:09:46;;;;;;;21.02;16.63;;;10.40;1.00;;;;;;5011018;28;20076;-68
2022/12/03 01:12:12;;;;;;;19.85;16.42;;;10.40;1.00;;;;;;5009490;28;20060;-72
2022/12/03 01:14:37;;;;;;;19.80;16.85;;;10.50;1.00;;;;;;5016109;28;20026;-73
2022/12/03 01:17:03;;;;;;;21.30;17.42;;;10.50;1.00;;;;;;5031600;28;20436;-72
2022/12/03 01:19:28;;;;;;;21.73;17.92;;;10.40;1.00;;;;;;5016275;28;20029;-73
2022/12/03 01:21:54;;;;;;;24.83;18.45;;;10.30;1.00;;;;;;5011407;28;20109;-73
2022/12/03 01:24:20;;;;;;;20.70;17.35;;;10.40;1.00;;;;;;5011869;28;20442;-73
2022/12/03 01:26:46;;;;;;;24.35;18.42;;;10.40;1.00;;;;;;5020804;28;20041;-73
2022/12/03 01:29:13;;;;;;;21.25;17.33;;;10.40;1.00;;;;;;5030275;28;20025;-73
2022/12/03 01:34:23;;;;;;;27.08;19.27;;;10.40;1.00;;;;;;5020828;28;20040;-73
2022/12/03 01:36:51;;;;;;;26.02;18.15;;;10.50;1.00;;;;;;5019230;28;20037;-73
2022/12/03 01:39:17;;;;;;;24.85;18.15;;;10.50;1.00;;;;;;5028911;28;20026;-73
2022/12/03 01:41:43;;;;;;;23.55;18.83;;;10.50;1.00;;;;;;5035206;28;20490;-73
2022/12/03 01:44:22;;;;;;;22.58;18.58;;;10.50;1.00;;;;;;5033996;28;20120;-73
2022/12/03 01:46:49;;;;;;;25.48;18.88;;;10.40;1.00;;;;;;5034799;28;20045;-73
2022/12/03 01:49:21;;;;;;;20.88;16.55;;;10.50;1.00;;;;;;5028899;28;20156;-73
2022/12/03 01:51:48;;;;;;;25.52;19.00;;;10.50;1.00;;;;;;5015025;28;20561;-73
2022/12/03 01:54:19;;;;;;;23.88;18.85;;;10.50;1.00;;;;;;5015193;28;20077;-74
2022/12/03 01:56:46;;;;;;;23.00;17.73;;;10.60;1.00;;;;;;5031919;28;20445;-72
2022/12/03 01:59:20;;;;;;;25.92;19.40;;;10.40;1.00;;;;;;5021452;28;20487;-73
2022/12/03 02:01:45;;;;;;;24.38;18.48;;;10.50;1.00;;;;;;5013824;28;20061;-72
2022/12/03 02:04:13;;;;;;;25.30;18.95;;;10.50;1.00;;;;;;5014745;28;20480;-73
2022/12/03 02:06:39;;;;;;;24.65;18.52;;;10.60;1.00;;;;;;5015180;28;20030;-73
2022/12/03 02:09:07;;;;;;;23.25;18.08;;;10.60;1.00;;;;;;5015188;28;20037;-72
2022/12/03 02:11:36;;;;;;;22.02;18.35;;;10.40;1.00;;;;;;5014927;28;20048;-73
2022/12/03 02:14:07;;;;;;;24.63;18.58;;;10.50;1.00;;;;;;5031554;28;20022;-73
2022/12/03 02:16:35;;;;;;;23.95;19.17;;;10.50;1.00;;;;;;5032166;28;20017;-72
2022/12/03 02:19:01;;;;;;;23.90;19.73;;;10.50;1.00;;;;;;5017906;28;20029;-72
2022/12/03 02:21:40;;;;;;;26.85;18.95;;;10.50;1.00;;;;;;5014383;28;20141;-73
2022/12/03 02:24:21;;;;;;;21.85;17.80;;;10.50;1.00;;;;;;5028167;28;20135;-72
2022/12/03 02:26:47;;;;;;;22.77;18.90;;;10.60;1.00;;;;;;5023561;28;20049;-72
2022/12/03 02:29:13;;;;;;;23.90;19.02;;;10.60;1.00;;;;;;5030038;28;20037;-71
2022/12/03 02:31:38;;;;;;;24.42;17.95;;;10.50;1.00;;;;;;5033393;28;20053;-72
2022/12/03 02:34:30;;;;;;;24.52;19.88;;;10.60;1.00;;;;;;5033520;28;20029;-72
2022/12/03 02:36:56;;;;;;;23.27;18.02;;;10.60;1.00;;;;;;5009301;28;20464;-72
2022/12/03 02:39:22;;;;;;;23.05;19.35;;;10.60;1.00;;;;;;5024741;28;20053;-72
2022/12/03 02:44:31;;;;;;;21.70;18.40;;;10.60;1.00;;;;;;5034529;28;20037;-72
2022/12/03 02:46:57;;;;;;;23.92;18.88;;;10.50;1.00;;;;;;5020941;28;20033;-72
2022/12/03 02:49:22;;;;;;;23.00;19.25;;;10.50;1.00;;;;;;5033390;28;20368;-72
2022/12/03 02:51:48;;;;;;;24.63;20.08;;;10.50;1.00;;;;;;5024566;28;20050;-72
2022/12/03 02:54:13;;;;;;;25.63;20.55;;;10.50;1.00;;;;;;5031239;28;20407;-72
2022/12/03 02:56:39;;;;;;;25.63;20.10;;;10.50;1.00;;;;;;5034226;28;20021;-71
2022/12/03 02:59:05;;;;;;;27.77;19.83;;;10.50;1.00;;;;;;5033772;28;20065;-72
2022/12/03 03:01:31;;;;;;;26.80;20.67;;;10.50;1.00;;;;;;5033877;28;20018;-72
2022/12/03 03:03:57;;;;;;;25.80;19.98;;;10.60;1.00;;;;;;5027192;28;20026;-73
2022/12/03 03:06:23;;;;;;;26.95;20.35;;;10.50;1.00;;;;;;5029541;28;20132;-71
2022/12/03 03:08:49;;;;;;;23.92;19.88;;;10.50;1.00;;;;;;5012776;28;20464;-71
2022/12/03 03:11:15;;;;;;;25.20;20.25;;;10.50;1.00;;;;;;5001897;28;20070;-71
2022/12/03 03:13:41;;;;;;;25.85;20.70;;;10.40;1.00;;;;;;5033571;28;20614;-72
2022/12/03 03:16:07;;;;;;;26.75;21.13;;;10.40;1.00;;;;;;5019513;28;20490;-71
2022/12/03 03:18:33;;;;;;;25.48;19.83;;;10.20;1.00;;;;;;5027407;28;20025;-71
2022/12/03 03:20:59;;;;;;;26.15;20.92;;;10.20;1.00;;;;;;5012815;28;20026;-71
2022/12/03 03:23:25;;;;;;;24.98;20.30;;;10.20;1.00;;;;;;5031161;28;20091;-71
2022/12/03 03:25:58;;;;;;;26.80;21.25;;;10.20;1.00;;;;;;5016474;28;20034;-71
2022/12/03 03:28:25;;;;;;;25.55;20.20;;;10.20;1.00;;;;;;5024937;28;20037;-70
2022/12/03 03:30:51;;;;;;;27.02;20.88;;;10.30;1.00;;;;;;5030067;28;20026;-71
2022/12/03 03:33:17;;;;;;;27.77;20.60;;;10.20;1.00;;;;;;5013579;28;20037;-70
2022/12/03 03:35:45;;;;;;;25.85;20.35;;;10.20;1.00;;;;;;5028805;28;20033;-71
2022/12/03 03:38:11;;;;;;;28.38;21.48;;;10.30;1.00;;;;;;5033534;28;20029;-70
2022/12/03 03:40:38;;;;;;;28.17;21.25;;;10.40;1.00;;;;;;5031929;28;20033;-71
2022/12/03 03:43:04;;;;;;;25.33;20.30;;;10.40;1.00;;;;;;5032870;28;20022;-71
2022/12/03 03:45:30;;;;;;;28.50;21.63;;;10.40;1.00;;;;;;5025587;28;20140;-71
2022/12/03 03:47:58;;;;;;;27.27;21.58;;;10.40;1.00;;;;;;5032866;28;20025;-71
2022/12/03 03:50:24;;;;;;;30.25;20.98;;;10.40;1.00;;;;;;5033103;28;20045;-71
2022/12/03 03:52:50;;;;;;;26.55;21.23;;;10.40;1.00;;;;;;5032740;28;20034;-71
2022/12/03 03:55:17;;;;;;;26.80;20.92;;;10.30;1.00;;;;;;5032528;28;20110;-71
2022/12/03 03:57:43;;;;;;;28.25;21.67;;;10.20;1.00;;;;;;5028901;28;20139;-71
2022/12/03 04:00:10;;;;;;;27.45;20.63;;;10.00;1.00;;;;;;5025319;28;20074;-71
2022/12/03 04:02:36;;;;;;;25.67;21.17;;;10.00;1.00;;;;;;5025203;28;20491;-70
2022/12/03 04:05:02;;;;;;;26.13;21.00;;;10.10;1.00;;;;;;5032611;28;20036;-71
2022/12/03 04:07:28;;;;;;;27.23;21.83;;;10.00;1.00;;;;;;5032731;28;20033;-71
2022/12/03 04:09:53;;;;;;;32.50;22.17;;;10.10;1.00;;;;;;5016769;28;20022;-71
2022/12/03 04:15:04;;;;;;;30.42;23.35;;;10.30;1.00;;;;;;5033312;28;20472;-71
2022/12/03 04:17:29;;;;;;;28.65;21.45;;;10.30;1.00;;;;;;5032515;28;20435;-71
2022/12/03 04:19:55;;;;;;;27.67;21.08;;;10.30;1.00;;;;;;5018723;28;20041;-70
2022/12/03 04:22:39;;;;;;;26.13;21.00;;;10.30;1.00;;;;;;5030696;28;20009;-70
2022/12/03 04:30:33;;;;;;;25.85;20.75;;;10.30;1.00;;;;;;5019202;28;20136;-70
2022/12/03 04:35:43;;;;;;;25.48;21.40;;;10.30;1.00;;;;;;5032995;28;20056;-70
2022/12/03 04:38:09;;;;;;;26.77;21.38;;;10.20;1.00;;;;;;5032349;28;20021;-70
2022/12/03 04:43:20;;;;;;;;;;;10.30;1.00;;;;;;5033053;28;20124;-70
2022/12/03 04:45:46;;;;;;;28.88;20.40;;;10.30;1.00;;;;;;5032271;28;20343;-70
2022/12/03 04:48:11;;;;;;;27.05;21.42;;;10.10;1.00;;;;;;5021303;28;20044;-70
2022/12/03 04:50:37;;;;;;;26.80;20.20;;;10.10;1.00;;;;;;5049314;28;20030;-70
2022/12/03 04:53:03;;;;;;;24.88;20.20;;;10.20;1.00;;;;;;5029706;28;20032;-70
2022/12/03 04:55:28;;;;;;;27.77;21.25;;;10.20;1.00;;;;;;5022916;28;20025;-70
2022/12/03 04:57:54;;;;;;;27.33;22.08;;;10.20;1.00;;;;;;5031972;28;20029;-70
2022/12/03 05:00:31;;;;;;;29.15;22.38;;;10.30;1.00;;;;;;5031792;28;20108;-70
2022/12/03 05:02:57;;;;;;;29.15;22.10;;;10.30;1.00;;;;;;5032255;28;20025;-70
2022/12/03 05:05:23;;;;;;;29.30;22.75;;;10.30;1.00;;;;;;5031966;28;20383;-70
2022/12/03 05:07:48;;;;;;;28.33;20.45;;;10.30;1.00;;;;;;5022767;28;20081;-70
2022/12/03 05:10:14;;;;;;;26.13;21.08;;;10.30;1.00;;;;;;5016647;28;20022;-70
2022/12/03 05:12:39;;;;;;;26.80;21.48;;;10.30;1.00;;;;;;5035607;28;20152;-70
2022/12/03 05:15:05;;;;;;;27.95;21.73;;;10.30;1.00;;;;;;5035721;28;20046;-70
2022/12/03 05:17:31;;;;;;;30.92;23.63;;;10.30;1.00;;;;;;5035451;28;20026;-70
2022/12/03 05:22:41;;;;;;;29.40;22.33;;;10.30;1.00;;;;;;5028050;28;20037;-70
2022/12/03 05:25:07;;;;;;;30.02;23.23;;;10.30;1.00;;;;;;5035402;28;20017;-70
2022/12/03 05:27:33;;;;;;;30.80;23.67;;;10.30;1.00;;;;;;5021665;28;20049;-70
2022/12/03 05:29:58;;;;;;;27.85;21.10;;;10.30;1.00;;;;;;5035732;28;20076;-70
2022/12/03 05:32:24;;;;;;;28.38;22.17;;;10.30;1.00;;;;;;5035669;28;20022;-70
2022/12/03 05:34:50;;;;;;;27.80;21.42;;;10.30;1.00;;;;;;5023584;28;20034;-70
2022/12/03 05:37:15;;;;;;;24.50;20.63;;;10.20;1.00;;;;;;5025717;28;20026;-70
2022/12/03 05:39:41;;;;;;;27.65;21.15;;;10.20;1.00;;;;;;5034266;28;20022;-70
2022/12/03 05:44:51;;;;;;;28.77;21.48;;;10.10;1.00;;;;;;5035523;28;20064;-70
2022/12/03 05:47:17;;;;;;;25.77;20.83;;;10.10;1.00;;;;;;5020049;28;20069;-70
2022/12/03 05:49:43;;;;;;;27.52;21.10;;;10.10;1.00;;;;;;5021057;28;20021;-70
2022/12/03 05:52:08;;;;;;;29.17;21.63;;;10.00;1.00;;;;;;5024485;28;20499;-70
2022/12/03 05:54:34;;;;;;;26.30;21.80;;;10.00;1.00;;;;;;5020977;28;20013;-70
2022/12/03 05:56:59;;;;;;;30.08;22.23;;;10.00;1.00;;;;;;5018582;28;20089;-69
2022/12/03 05:59:25;;;;;;;28.38;22.77;;;10.00;1.00;;;;;;5013609;28;20033;-69
2022/12/03 06:01:50;;;;;;;29.25;21.30;;;9.90;1.00;;;;;;5013567;28;20029;-69
2022/12/03 06:04:16;;;;;;;29.25;22.58;;;9.80;99.90;;;;;;5013312;28;20022;-70
2022/12/03 06:06:42;;;;;;;27.73;22.33;;;9.80;99.90;;;;;;5016309;28;20025;-70
2022/12/03 06:09:07;;;;;;;29.48;22.50;;;9.70;99.90;;;;;;5014714;28;20660;-70
2022/12/03 06:11:34;;;;;;;31.38;22.95;;;9.60;99.90;;;;;;5017933;28;20022;-70
2022/12/03 06:13:59;;;;;;;33.38;22.52;;;9.60;99.90;;;;;;5021668;28;20060;-70
2022/12/03 06:16:25;;;;;;;27.85;21.63;;;9.60;99.90;;;;;;5021262;28;20446;-70
2022/12/03 06:18:51;;;;;;;29.93;21.87;;;9.70;99.90;;;;;;5016476;28;20072;-70
2022/12/03 06:21:16;;;;;;;31.48;23.40;;;9.60;99.90;;;;;;5034036;28;20017;-70
2022/12/03 06:23:43;;;;;;;29.77;23.30;;;9.60;99.90;;;;;;5023790;28;20084;-70
2022/12/03 06:26:12;;;;;;;33.28;24.65;;;9.70;99.90;;;;;;5030065;28;20057;-70
2022/12/03 06:28:39;;;;;;;32.03;25.13;;;9.60;99.90;;;;;;5034283;28;20091;-70
2022/12/03 06:31:04;;;;;;;31.80;23.38;;;9.60;99.90;;;;;;5034477;28;20380;-70
2022/12/03 06:33:30;;;;;;;32.70;26.50;;;9.60;99.90;;;;;;5033132;28;20059;-71
2022/12/03 06:35:56;;;;;;;34.58;26.25;;;9.60;99.90;;;;;;5034554;28;20033;-71
2022/12/03 06:38:21;;;;;;;32.22;24.83;;;9.60;99.90;;;;;;5032137;28;20018;-71
2022/12/03 06:40:47;;;;;;;33.00;24.38;;;9.60;99.90;;;;;;5015278;28;20141;-71
2022/12/03 06:43:13;;;;;;;31.63;24.50;;;9.70;99.90;;;;;;5030175;28;20025;-71
2022/12/03 06:45:38;;;;;;;33.10;26.27;;;9.70;99.90;;;;;;5034249;28;20021;-71
2022/12/03 06:48:04;;;;;;;30.38;24.38;;;9.70;99.90;;;;;;5028922;28;20442;-72
2022/12/03 06:50:30;;;;;;;34.58;25.67;;;9.70;49.70;;;;;;5033510;28;20033;-71
2022/12/03 06:52:56;;;;;;;33.67;25.95;;;9.70;19.40;;;;;;5033673;28;20044;-71
2022/12/03 06:55:21;;;;;;;33.50;26.30;;;9.60;4.00;;;;;;5033853;28;20092;-71
2022/12/03 06:57:47;;;;;;;31.10;23.67;;;9.70;1.00;;;;;;5034007;28;20033;-71
2022/12/03 07:00:13;;;;;;;35.10;25.88;;;9.80;1.00;;;;;;5021427;28;20032;-71
2022/12/03 07:02:38;;;;;;;37.22;27.20;;;9.80;1.00;;;;;;5032295;28;20022;-71
2022/12/03 07:05:04;;;;;;;36.13;25.92;;;9.80;1.00;;;;;;5033070;28;20030;-71
2022/12/03 07:07:30;;;;;;;32.28;25.17;;;9.80;1.00;;;;;;5033923;28;20481;-71
2022/12/03 07:09:56;;;;;;;34.50;25.17;;;9.70;1.00;;;;;;5033571;28;20108;-71
2022/12/03 07:12:21;;;;;;;35.60;26.48;;;9.80;1.00;;;;;;5033752;28;20025;-71
2022/12/03 07:14:47;;;;;;;33.17;25.45;;;9.80;99.90;;;;;;5022480;28;20490;-71
2022/12/03 07:17:13;;;;;;;37.67;27.23;;;9.80;99.90;;;;;;5028022;28;20030;-71
2022/12/03 07:19:38;;;;;;;35.75;27.40;;;9.80;99.90;;;;;;5026820;28;20062;-71
2022/12/03 07:22:04;;;;;;;43.13;30.38;;;9.70;99.90;;;;;;5026386;28;20383;-71
2022/12/03 07:24:30;;;;;;;36.90;27.23;;;9.60;99.90;;;;;;5033146;28;20097;-71
2022/12/03 07:26:55;;;;;;;38.38;27.83;;;9.80;99.90;;;;;;5033713;28;20033;-71
2022/12/03 07:29:21;;;;;;;33.35;25.40;;;9.80;99.90;;;;;;5023946;28;20065;-71
2022/12/03 07:31:47;;;;;;;36.63;27.97;;;9.70;99.90;;;;;;5033362;28;20037;-71
2022/12/03 07:34:12;;;;;;;36.40;27.65;;;9.70;99.90;;;;;;5032835;28;20036;-71
2022/12/03 07:36:38;;;;;;;40.75;29.02;;;9.80;99.90;;;;;;5033271;28;20017;-71
2022/12/03 07:39:03;;;;;;;35.83;27.23;;;9.80;99.90;;;;;;5033116;28;20029;-71
2022/12/03 07:41:29;;;;;;;37.05;27.83;;;9.70;99.90;;;;;;5032981;28;20022;-71
2022/12/03 07:43:55;;;;;;;36.55;27.30;;;9.80;99.90;;;;;;5023951;28;20026;-72
2022/12/03 07:46:20;;;;;;;36.78;27.00;;;9.80;99.90;;;;;;5029254;28;20027;-71
2022/12/03 07:48:46;;;;;;;35.03;27.45;;;9.70;99.90;;;;;;5032037;28;20045;-71
2022/12/03 07:51:11;;;;;;;37.80;28.17;;;9.70;99.90;;;;;;5031102;28;20125;-71
2022/12/03 07:53:37;;;;;;;38.78;28.65;;;9.70;49.30;;;;;;5032155;28;20018;-71
2022/12/03 07:56:03;;;;;;;41.17;30.20;;;9.80;1.00;;;;;;5032525;28;20108;-71
2022/12/03 07:58:29;;;;;;;38.50;29.40;;;9.80;1.00;;;;;;5028860;28;20032;-71
2022/12/03 08:00:55;;;;;;;42.85;32.05;;;9.80;1.00;;;;;;5032037;28;20103;-71
2022/12/03 08:03:21;;;;;;;43.67;31.65;;;9.80;1.00;;;;;;5030360;28;20030;-71
2022/12/03 08:05:47;;;;;;;42.87;31.00;;;9.90;1.00;;;;;;5032495;28;20031;-71
2022/12/03 08:08:12;;;;;;;39.17;28.40;;;9.90;1.00;;;;;;5017972;28;20038;-71
2022/12/03 08:10:38;;;;;;;39.83;28.95;;;9.90;1.00;;;;;;5031227;28;20018;-70
2022/12/03 08:13:10;;;;;;;40.00;29.90;;;9.90;1.00;;;;;;5025934;28;20507;-70
2022/12/03 08:15:36;;;;;;;41.00;28.33;;;9.90;1.00;;;;;;5006810;28;20042;-71
2022/12/03 08:18:10;;;;;;;35.17;26.90;;;9.70;1.00;;;;;;5024444;28;20041;-71
2022/12/03 08:20:39;;;;;;;39.92;29.02;;;9.60;1.00;;;;;;5030278;28;20336;-71
2022/12/03 08:23:15;;;;;;;41.25;31.55;;;9.70;1.00;;;;;;5018164;28;20041;-70
2022/12/03 08:25:42;;;;;;;41.22;30.77;;;9.80;1.00;;;;;;5027796;28;20025;-70
2022/12/03 08:28:25;;;;;;;43.65;31.70;;;9.80;1.00;;;;;;5031537;28;20333;-70
2022/12/03 08:31:01;;;;;;;41.55;30.40;;;9.80;1.00;;;;;;5032185;28;20026;-70
2022/12/03 08:33:34;;;;;;;43.35;32.80;;;9.70;1.00;;;;;;5031589;28;20025;-70
2022/12/03 08:36:11;;;;;;;43.72;31.75;;;9.70;1.00;;;;;;5031967;28;20022;-70
2022/12/03 08:38:36;;;;;;;42.60;29.38;;;9.60;1.00;;;;;;5022535;28;20044;-70
2022/12/03 08:41:14;;;;;;;41.10;29.77;;;9.70;1.00;;;;;;5028193;28;20033;-70
2022/12/03 08:43:42;;;;;;;42.05;29.25;;;9.70;1.00;;;;;;5031896;28;20021;-70
2022/12/03 08:46:17;;;;;;;36.85;27.42;;;9.70;1.00;;;;;;5031947;28;20080;-70
2022/12/03 08:48:44;;;;;;;38.38;27.60;;;9.80;1.00;;;;;;5031342;28;20129;-70
2022/12/03 08:51:26;;;;;;;34.92;26.20;;;9.80;1.00;;;;;;5031574;28;20190;-70
2022/12/03 08:54:03;;;;;;;38.42;28.75;;;9.80;1.00;;;;;;5026768;28;20376;-70
2022/12/03 08:56:31;;;;;;;41.65;28.95;;;9.90;1.00;;;;;;5017819;28;20045;-71
2022/12/03 08:59:17;;;;;;;37.38;27.83;;;9.90;25.30;;;;;;5021392;28;20472;-70
2022/12/03 09:01:44;;;;;;;45.25;28.83;;;9.90;25.90;;;;;;5030770;28;20026;-70
2022/12/03 09:04:25;;;;;;;42.15;29.02;;;9.90;21.80;;;;;;5031405;28;20382;-70
2022/12/03 09:06:52;;;;;;;40.22;29.23;;;9.90;22.40;;;;;;5031648;28;20072;-70
2022/12/03 09:09:18;;;;;;;37.55;27.50;;;9.80;28.90;;;;;;5023362;28;20034;-70
2022/12/03 09:11:44;;;;;;;37.50;28.40;;;9.90;26.10;;;;;;5031202;28;20109;-70
2022/12/03 09:14:10;;;;;;;41.45;30.23;;;9.90;47.40;;;;;;5027910;28;20022;-70
2022/12/03 09:16:36;;;;;;;44.80;31.63;;;9.80;1.00;;;;;;5021510;28;20152;-70
2022/12/03 09:19:02;;;;;;;42.75;30.77;;;9.90;1.00;;;;;;5031611;28;20032;-70
2022/12/03 09:21:28;;;;;;;47.95;31.77;;;9.90;1.00;;;;;;5031907;28;20018;-70
2022/12/03 09:23:53;;;;;;;46.80;33.13;;;10.00;1.00;;;;;;5026544;28;20041;-70
2022/12/03 09:26:19;;;;;;;45.33;31.98;;;10.00;17.10;;;;;;5031168;28;20029;-70
2022/12/03 09:28:47;;;;;;;42.50;30.52;;;10.00;99.90;;;;;;5031174;28;20120;-70
2022/12/03 09:31:13;;;;;;;45.20;30.13;;;10.00;99.90;;;;;;5030068;28;20026;-70
2022/12/03 09:33:38;;;;;;;41.88;30.92;;;10.00;99.90;;;;;;5031307;28;20109;-70
2022/12/03 09:36:05;;;;;;;43.13;31.80;;;10.00;99.90;;;;;;5029849;28;20033;-71
2022/12/03 09:38:32;;;;;;;42.80;30.85;;;10.00;99.90;;;;;;5014078;28;20017;-65
2022/12/03 09:40:58;;;;;;;39.53;28.52;;;9.80;99.90;;;;;;5019133;28;20053;-67
2022/12/03 09:43:25;;;;;;;41.58;29.42;;;9.80;61.20;;;;;;5029384;28;20029;-66
2022/12/03 09:45:51;;;;;;;36.22;26.90;;;9.80;27.40;;;;;;5018363;28;20025;-66
2022/12/03 09:48:20;;;;;;;40.90;31.27;;;9.90;15.40;;;;;;5029263;28;20029;-66
2022/12/03 09:50:47;;;;;;;40.58;30.23;;;10.00;6.50;;;;;;5031352;28;20049;-67
2022/12/03 09:53:17;;;;;;;43.45;31.38;;;10.00;1.00;;;;;;5016610;28;20107;-67
2022/12/03 09:55:44;;;;;;;39.03;27.48;;;10.10;1.00;;;;;;5031905;28;20056;-67
2022/12/03 10:01:31;;;;;;;37.92;27.77;;;10.10;1.00;;;;;;5007948;28;20080;-67
2022/12/03 10:03:57;;;;;;;40.70;29.20;;;10.00;1.00;;;;;;5025234;28;20017;-67
2022/12/03 10:06:23;;;;;;;36.45;27.70;;;10.10;1.00;;;;;;5031605;28;20052;-67
2022/12/03 10:08:53;;;;;;;34.20;26.60;;;10.10;1.00;;;;;;5027634;28;20049;-67
2022/12/03 10:11:23;;;;;;;30.70;24.48;;;10.20;1.00;;;;;;5033947;28;20463;-67
2022/12/03 10:13:50;;;;;;;34.20;25.73;;;10.30;1.00;;;;;;5033965;28;20108;-66
2022/12/03 10:16:21;;;;;;;36.03;24.38;;;10.30;1.00;;;;;;5021352;28;20022;-67
2022/12/03 10:18:53;;;;;;;32.53;25.65;;;10.30;1.00;;;;;;5031063;28;20094;-66
2022/12/03 10:21:30;;;;;;;32.35;25.80;;;10.40;1.00;;;;;;5007477;28;20021;-67
2022/12/03 10:24:22;;;;;;;36.08;26.08;;;10.40;1.00;;;;;;5033701;28;20021;-68
2022/12/03 10:26:49;;;;;;;32.63;24.73;;;10.50;1.00;;;;;;5011510;28;20026;-68
2022/12/03 10:29:27;;;;;;;33.67;24.70;;;10.50;1.00;;;;;;5012849;28;20056;-68
2022/12/03 10:32:02;;;;;;;29.48;23.88;;;10.50;1.00;;;;;;5013263;28;20025;-70
2022/12/03 10:34:31;;;;;;;30.73;22.70;;;10.50;1.00;;;;;;5013461;28;20365;-67
2022/12/03 10:37:17;;;;;;;28.17;22.08;;;10.40;1.00;;;;;;5014465;28;20141;-69
2022/12/03 10:39:54;;;;;;;30.17;24.27;;;10.50;1.00;;;;;;5017361;28;20024;-68
2022/12/03 10:42:20;;;;;;;31.03;24.13;;;10.50;1.00;;;;;;5014437;28;20507;-69
2022/12/03 10:44:46;;;;;;;28.57;22.23;;;10.50;1.00;;;;;;5013071;28;20038;-69
2022/12/03 10:47:13;;;;;;;30.05;21.33;;;10.30;1.00;;;;;;5031816;28;20029;-69
2022/12/03 10:49:40;;;;;;;29.92;23.35;;;10.40;1.00;;;;;;5027881;28;20053;-69
2022/12/03 10:52:21;;;;;;;27.67;22.70;;;10.50;1.00;;;;;;5019076;28;20057;-69
2022/12/03 10:54:48;;;;;;;30.48;24.08;;;10.50;1.00;;;;;;5018692;28;20741;-69
2022/12/03 10:57:14;;;;;;;29.83;23.02;;;10.50;1.00;;;;;;5033990;28;20336;-68
2022/12/03 10:59:41;;;;;;;30.10;23.17;;;10.60;1.00;;;;;;5033744;28;20025;-69
2022/12/03 11:02:20;;;;;;;30.67;22.55;;;10.60;1.00;;;;;;5022082;28;20112;-69
2022/12/03 11:04:47;;;;;;;28.45;21.67;;;10.60;1.00;;;;;;5028893;28;20022;-68
2022/12/03 11:07:20;;;;;;;27.88;20.98;;;10.60;1.00;;;;;;5026411;28;20037;-69
2022/12/03 11:09:48;;;;;;;26.52;21.08;;;10.70;1.00;;;;;;5028512;28;20460;-69
2022/12/03 11:12:19;;;;;;;23.73;19.52;;;10.70;1.00;;;;;;5025125;28;20050;-68
2022/12/03 11:14:49;;;;;;;26.77;21.63;;;10.60;1.00;;;;;;5021725;28;20040;-68
2022/12/03 11:17:45;;;;;;;23.80;20.05;;;10.60;1.00;;;;;;5006776;28;20451;-68
2022/12/03 11:20:31;;;;;;;27.98;20.90;;;10.50;1.00;;;;;;5033314;28;20064;-69
2022/12/03 11:22:57;;;;;;;27.42;21.20;;;10.50;1.00;;;;;;5019357;28;20048;-69
2022/12/03 11:25:25;;;;;;;27.15;20.70;;;10.50;1.00;;;;;;5006154;28;20026;-68
2022/12/03 11:28:13;;;;;;;26.83;21.58;;;10.50;1.00;;;;;;5023365;28;20168;-69
2022/12/03 11:30:47;;;;;;;29.23;21.20;;;10.50;1.00;;;;;;5016989;28;20033;-69
2022/12/03 11:33:28;;;;;;;28.15;22.17;;;10.40;65.70;;;;;;5010615;28;20164;-69
2022/12/03 11:36:02;;;;;;;27.23;21.52;;;10.40;86.60;;;;;;5009177;28;20391;-61
2022/12/03 11:38:37;;;;;;;28.17;20.83;;;10.40;93.20;;;;;;5012691;28;20064;-61
2022/12/03 11:44:30;;;;;;;31.70;22.10;;;10.30;24.20;;;;;;5008009;28;20495;-58
2022/12/03 11:46:57;;;;;;;25.98;20.55;;;10.00;29.80;;;;;;5025636;28;20034;-66
2022/12/03 11:49:34;;;;;;;25.33;20.20;;;9.90;23.20;;;;;;5029564;28;20063;-66
2022/12/03 11:52:03;;;;;;;26.35;19.95;;;10.10;18.50;;;;;;5022080;28;20045;-66
2022/12/03 11:54:33;;;;;;;23.25;17.88;;;10.30;11.70;;;;;;5013253;28;20544;-65
2022/12/03 11:57:00;;;;;;;24.38;19.27;;;10.20;1.00;;;;;;5008184;28;20030;-66
2022/12/03 11:59:26;;;;;;;23.88;18.20;;;10.30;1.00;;;;;;5009390;28;20018;-66
2022/12/03 12:01:52;;;;;;;23.38;19.95;;;10.30;1.00;;;;;;5020805;28;20084;-66
2022/12/03 12:04:28;;;;;;;25.10;19.35;;;10.40;1.00;;;;;;5017251;28;20065;-66
2022/12/03 12:06:53;;;;;;;28.70;21.70;;;10.50;1.00;;;;;;5013135;28;20437;-65
2022/12/03 12:09:49;;;;;;;26.25;19.83;;;10.50;1.00;;;;;;5009754;28;20045;-66
2022/12/03 12:12:38;;;;;;;31.70;22.90;;;10.50;1.00;;;;;;5025606;28;20030;-66
2022/12/03 12:15:38;;;;;;;29.55;20.10;;;10.50;1.00;;;;;;5008831;28;20018;-66
2022/12/03 12:18:41;;;;;;;30.98;18.67;;;10.40;1.00;;;;;;5009536;28;20022;-65
2022/12/03 12:21:37;;;;;;;30.67;20.52;;;10.40;1.00;;;;;;5008393;28;20045;-65
2022/12/03 12:24:39;;;;;;;22.50;17.88;;;10.40;1.00;;;;;;5010050;28;20029;-66
2022/12/03 12:27:10;;;;;;;28.20;19.67;;;10.40;1.00;;;;;;5003716;28;20088;-65
2022/12/03 12:29:37;;;;;;;26.88;17.83;;;10.40;1.00;;;;;;5013684;28;20021;-65
2022/12/03 12:32:15;;;;;;;26.50;19.23;;;10.40;1.00;;;;;;5014868;28;20043;-65
2022/12/03 12:34:43;;;;;;;23.55;19.50;;;10.40;1.00;;;;;;5017365;28;20072;-65
2022/12/03 12:37:20;;;;;;;25.15;19.73;;;10.40;1.00;;;;;;5017866;28;20030;-66
2022/12/03 12:39:46;;;;;;;28.65;21.92;;;10.40;1.00;;;;;;5016415;28;20030;-65
2022/12/03 12:42:34;;;;;;;22.77;17.48;;;10.30;1.00;;;;;;5004741;28;20570;-65
2022/12/03 12:45:21;;;;;;;23.67;17.67;;;10.30;1.00;;;;;;5015786;28;20026;-65
2022/12/03 12:47:59;;;;;;;26.88;18.90;;;10.20;1.00;;;;;;5010043;28;20124;-65
2022/12/03 12:50:25;;;;;;;25.17;19.40;;;10.20;1.00;;;;;;5003959;28;20049;-65
2022/12/03 12:52:57;;;;;;;21.17;17.23;;;10.20;1.00;;;;;;5015355;28;20120;-66
2022/12/03 12:55:23;;;;;;;24.15;17.80;;;10.10;1.00;;;;;;5011509;28;20113;-65
2022/12/03 12:57:49;;;;;;;25.85;18.02;;;10.20;1.00;;;;;;5010364;28;20108;-66
2022/12/03 13:00:21;;;;;;;21.77;17.10;;;10.30;1.00;;;;;;5009541;28;20395;-66
2022/12/03 13:02:58;;;;;;;24.60;18.02;;;10.30;1.00;;;;;;5019650;28;20360;-66
2022/12/03 13:05:26;;;;;;;26.10;18.55;;;10.20;1.00;;;;;;5009993;28;20026;-66
2022/12/03 13:07:53;;;;;;;25.35;19.05;;;10.30;1.00;;;;;;5009589;28;20045;-66
2022/12/03 13:10:40;;;;;;;25.95;19.02;;;10.20;1.00;;;;;;5008305;28;20022;-66
2022/12/03 13:13:17;;;;;;;25.88;18.77;;;10.30;1.00;;;;;;5031848;28;20361;-66
2022/12/03 13:16:01;;;;;;;27.35;19.70;;;10.20;1.00;;;;;;5031937;28;20033;-66
2022/12/03 13:18:38;;;;;;;27.63;19.85;;;10.30;1.00;;;;;;5030271;28;20041;-66